Time;durP1;ratioP1;P1;durP2;ratioP2;P2;SDS_P1;SDS_P2;PMS_P1;PMS_P2;Temp;Humidity;BMP_temperature;BMP_pressure;BME280_temperature;BME280_humidity;BME280_pressure;Samples;Min_cycle;Max_cycle;Signal;HPM_P1;HPM_P2
2021/12/31 00:00:52;;;;;;;;;;;;;;;;;;7393691;19;19922;-56
2021/12/31 00:03:19;;;;;;;;;;;;;;;;;;7394241;19;19918;-66
2021/12/31 00:05:47;;;;;;;;;;;;;;;;;;7392488;19;19926;-54
2021/12/31 00:08:14;;;;;;;;;;;;;;;;;;7391921;19;19974;-61
2021/12/31 00:10:41;;;;;;;;;;;;;;;;;;7393565;19;19918;-63
2021/12/31 00:13:08;;;;;;;;;;;;;;;;;;7393182;19;19922;-55
2021/12/31 00:15:36;;;;;;;;;;;;;;;;;;7392679;19;20586;-67
2021/12/31 00:18:03;;;;;;;;;;;;;;;;;;7393511;19;19915;-64
2021/12/31 00:20:32;;;;;;;;;;;;;;;;;;7393084;19;19943;-51
2021/12/31 00:23:04;;;;;;;;;;;;;;;;;;7393145;19;19910;-67
2021/12/31 00:25:35;;;;;;;;;;;;;;;;;;7391929;19;19918;-58
2021/12/31 00:28:03;;;;;;;;;;;;;;;;;;7392453;19;19938;-52
2021/12/31 00:30:32;;;;;;;;;;;;;;;;;;7392340;19;19947;-59
2021/12/31 00:33:01;;;;;;;;;;;;;;;;;;7392826;19;19922;-62
2021/12/31 00:35:29;;;;;;;;;;;;;;;;;;7391157;19;19921;-67
2021/12/31 00:37:56;;;;;;;;;;;;;;;;;;7392225;19;19943;-64
2021/12/31 00:40:24;;;;;;;;;;;;;;;;;;7392649;19;19941;-66
2021/12/31 00:42:51;;;;;;;;;;;;;;;;;;7392943;19;19962;-57
2021/12/31 00:45:19;;;;;;;;;;;;;;;;;;7392110;19;20332;-53
2021/12/31 00:47:47;;;;;;;;;;;;;;;;;;7392849;19;19936;-54
2021/12/31 00:50:16;;;;;;;;;;;;;;;;;;7393745;19;20348;-63
2021/12/31 00:52:44;;;;;;;;;;;;;;;;;;7392015;19;20364;-51
2021/12/31 00:55:11;;;;;;;;;;;;;;;;;;7390608;19;19915;-67
2021/12/31 00:57:39;;;;;;;;;;;;;;;;;;7391901;19;19918;-64
2021/12/31 01:00:07;;;;;;;;;;;;;;;;;;7391355;19;19915;-67
2021/12/31 01:02:34;;;;;;;;;;;;;;;;;;7391917;19;19939;-67
2021/12/31 01:05:03;;;;;;;;;;;;;;;;;;7391225;19;19925;-66
2021/12/31 01:07:31;;;;;;;;;;;;;;;;;;7390416;19;19911;-51
2021/12/31 01:10:00;;;;;;;;;;;;;;;;;;7391448;19;19918;-54
2021/12/31 01:12:27;;;;;;;;;;;;;;;;;;7391632;19;20356;-56
2021/12/31 01:14:59;;;;;;;;;;;;;;;;;;7391200;19;19918;-57
2021/12/31 01:20:09;;;;;;;;;;;;;;;;;;7388982;19;20251;-65
2021/12/31 01:22:37;;;;;;;;;;;;;;;;;;7391762;19;20243;-52
2021/12/31 01:25:05;;;;;;;;;;;;;;;;;;7390739;19;19911;-67
2021/12/31 01:27:33;;;;;;;;;;;;;;;;;;7391360;19;19919;-55
2021/12/31 01:30:01;;;;;;;;;;;;;;;;;;7390620;19;19914;-50
2021/12/31 01:32:30;;;;;;;;;;;;;;;;;;7390931;19;19939;-67
2021/12/31 01:34:57;;;;;;;;;;;;;;;;;;7391460;19;19915;-63
2021/12/31 01:37:25;;;;;;;;;;;;;;;;;;7390696;19;19970;-53
2021/12/31 01:39:52;;;;;;;;;;;;;;;;;;7389710;19;20070;-53
2021/12/31 01:42:27;;;;;;;;;;;;;;;;;;7391070;19;19915;-57
2021/12/31 01:45:01;;;;;;;;;;;;;;;;;;7390180;19;20340;-59
2021/12/31 01:47:46;;;;;;;;;;;;;;;;;;7392449;19;19925;-57
2021/12/31 01:50:13;;;;;;;;;;;;;;;;;;7399421;19;19922;-58
2021/12/31 01:52:40;;;;;;;;;;;;;;;;;;7400108;19;19915;-61
2021/12/31 01:55:11;;;;;;;;;;;;;;;;;;7398192;19;20380;-66
2021/12/31 01:57:40;;;;;;;;;;;;;;;;;;7395936;19;19918;-68
2021/12/31 02:00:09;;;;;;;;;;;;;;;;;;7397659;19;19914;-61
2021/12/31 02:02:36;;;;;;;;;;;;;;;;;;7400300;19;19941;-63
2021/12/31 02:05:04;;;;;;;;;;;;;;;;;;7396999;19;20392;-65
2021/12/31 02:07:33;;;;;;;;;;;;;;;;;;7396079;19;19946;-58
2021/12/31 02:10:00;;;;;;;;;;;;;;;;;;7396972;19;19943;-60
2021/12/31 02:12:27;;;;;;;;;;;;;;;;;;7397668;19;19966;-53
2021/12/31 02:14:55;;;;;;;;;;;;;;;;;;7397151;19;19922;-67
2021/12/31 02:17:22;;;;;;;;;;;;;;;;;;7397288;19;19942;-53
2021/12/31 02:19:55;;;;;;;;;;;;;;;;;;7397627;19;19910;-55
2021/12/31 02:22:27;;;;;;;;;;;;;;;;;;7396844;19;19982;-56
2021/12/31 02:24:55;;;;;;;;;;;;;;;;;;7396793;19;19922;-50
2021/12/31 02:27:24;;;;;;;;;;;;;;;;;;7396870;19;19923;-49
2021/12/31 02:29:51;;;;;;;;;;;;;;;;;;7397346;19;19928;-51
2021/12/31 02:32:19;;;;;;;;;;;;;;;;;;7396663;19;20335;-49
2021/12/31 02:34:46;;;;;;;;;;;;;;;;;;7396204;19;19919;-66
2021/12/31 02:37:14;;;;;;;;;;;;;;;;;;7395207;19;20248;-52
2021/12/31 02:39:43;;;;;;;;;;;;;;;;;;7396336;19;19915;-66
2021/12/31 02:42:10;;;;;;;;;;;;;;;;;;7396263;19;19978;-67
2021/12/31 02:44:38;;;;;;;;;;;;;;;;;;7395853;19;20343;-52
2021/12/31 02:47:06;;;;;;;;;;;;;;;;;;7392186;19;19919;-50
2021/12/31 02:49:36;;;;;;;;;;;;;;;;;;7396509;19;19919;-54
2021/12/31 02:52:04;;;;;;;;;;;;;;;;;;7396100;19;19919;-51
2021/12/31 02:54:32;;;;;;;;;;;;;;;;;;7394646;19;19930;-50
2021/12/31 02:56:59;;;;;;;;;;;;;;;;;;7396033;19;20328;-52
2021/12/31 02:59:27;;;;;;;;;;;;;;;;;;7394514;19;19911;-55
2021/12/31 03:01:55;;;;;;;;;;;;;;;;;;7393959;19;20251;-50
2021/12/31 03:04:23;;;;;;;;;;;;;;;;;;7395828;19;19915;-51
2021/12/31 03:06:52;;;;;;;;;;;;;;;;;;7394166;19;19929;-67
2021/12/31 03:09:23;;;;;;;;;;;;;;;;;;7396077;19;19915;-53
2021/12/31 03:11:52;;;;;;;;;;;;;;;;;;7395919;19;19927;-56
2021/12/31 03:14:20;;;;;;;;;;;;;;;;;;7395876;19;19919;-51
2021/12/31 03:16:48;;;;;;;;;;;;;;;;;;7396228;19;19926;-49
2021/12/31 03:19:16;;;;;;;;;;;;;;;;;;7395199;19;19921;-50
2021/12/31 03:21:43;;;;;;;;;;;;;;;;;;7395186;19;19929;-57
2021/12/31 03:24:11;;;;;;;;;;;;;;;;;;7394946;19;19923;-52
2021/12/31 03:26:38;;;;;;;;;;;;;;;;;;7393951;19;19911;-54
2021/12/31 03:29:05;;;;;;;;;;;;;;;;;;7394514;19;20328;-50
2021/12/31 03:31:32;;;;;;;;;;;;;;;;;;7395220;19;19922;-48
2021/12/31 03:34:00;;;;;;;;;;;;;;;;;;7394848;19;19918;-53
2021/12/31 03:36:27;;;;;;;;;;;;;;;;;;7394959;19;19978;-62
2021/12/31 03:38:54;;;;;;;;;;;;;;;;;;7394550;19;19918;-51
2021/12/31 03:41:21;;;;;;;;;;;;;;;;;;7394871;19;19952;-51
2021/12/31 03:43:48;;;;;;;;;;;;;;;;;;7394528;19;20275;-54
2021/12/31 03:46:15;;;;;;;;;;;;;;;;;;7392929;19;19914;-66
2021/12/31 03:48:43;;;;;;;;;;;;;;;;;;7394273;19;19985;-49
2021/12/31 03:51:13;;;;;;;;;;;;;;;;;;7397572;19;19919;-56
2021/12/31 03:53:40;;;;;;;;;;;;;;;;;;7393922;19;19922;-51
2021/12/31 03:56:07;;;;;;;;;;;;;;;;;;7393766;19;19914;-51
2021/12/31 03:58:34;;;;;;;;;;;;;;;;;;7393718;19;20396;-54
2021/12/31 04:01:02;;;;;;;;;;;;;;;;;;7393969;19;19919;-51
2021/12/31 04:03:29;;;;;;;;;;;;;;;;;;7393962;19;19955;-56
2021/12/31 04:05:56;;;;;;;;;;;;;;;;;;7392463;19;19919;-63
2021/12/31 04:08:23;;;;;;;;;;;;;;;;;;7391629;19;19918;-59
2021/12/31 04:10:51;;;;;;;;;;;;;;;;;;7391736;19;20025;-65
2021/12/31 04:13:18;;;;;;;;;;;;;;;;;;7393812;19;19913;-67
2021/12/31 04:15:45;;;;;;;;;;;;;;;;;;7393358;19;19956;-54
2021/12/31 04:18:12;;;;;;;;;;;;;;;;;;7392933;19;19922;-67
2021/12/31 04:20:42;;;;;;;;;;;;;;;;;;7392622;19;20337;-59
2021/12/31 04:23:25;;;;;;;;;;;;;;;;;;7392614;19;19943;-50
2021/12/31 04:25:53;;;;;;;;;;;;;;;;;;7392985;19;19915;-51
2021/12/31 04:28:21;;;;;;;;;;;;;;;;;;7395356;19;19985;-67
2021/12/31 04:30:48;;;;;;;;;;;;;;;;;;7393153;19;19915;-55
2021/12/31 04:33:15;;;;;;;;;;;;;;;;;;7392354;19;19914;-51
2021/12/31 04:35:42;;;;;;;;;;;;;;;;;;7392378;19;20411;-55
2021/12/31 04:38:09;;;;;;;;;;;;;;;;;;7392260;19;20491;-55
2021/12/31 04:40:37;;;;;;;;;;;;;;;;;;7392293;19;19918;-57
2021/12/31 04:43:04;;;;;;;;;;;;;;;;;;7392377;19;19963;-61
2021/12/31 04:45:31;;;;;;;;;;;;;;;;;;7392100;19;19937;-55
2021/12/31 04:47:59;;;;;;;;;;;;;;;;;;7392046;19;22444;-54
2021/12/31 04:50:27;;;;;;;;;;;;;;;;;;7392378;19;20237;-51
2021/12/31 04:52:54;;;;;;;;;;;;;;;;;;7392333;19;19918;-56
2021/12/31 04:55:21;;;;;;;;;;;;;;;;;;7392492;19;19915;-55
2021/12/31 04:57:49;;;;;;;;;;;;;;;;;;7392399;19;19935;-67
2021/12/31 05:00:17;;;;;;;;;;;;;;;;;;7391811;19;19922;-49
2021/12/31 05:02:44;;;;;;;;;;;;;;;;;;7391739;19;19918;-55
2021/12/31 05:05:11;;;;;;;;;;;;;;;;;;7391683;19;19930;-67
2021/12/31 05:07:39;;;;;;;;;;;;;;;;;;7389554;19;19915;-67
2021/12/31 05:10:07;;;;;;;;;;;;;;;;;;7391151;19;19919;-51
2021/12/31 05:12:36;;;;;;;;;;;;;;;;;;7391831;19;19947;-61
2021/12/31 05:15:08;;;;;;;;;;;;;;;;;;7391402;19;19918;-54
2021/12/31 05:17:36;;;;;;;;;;;;;;;;;;7391259;19;20041;-67
2021/12/31 05:20:04;;;;;;;;;;;;;;;;;;7391409;19;19915;-49
2021/12/31 05:22:33;;;;;;;;;;;;;;;;;;7396976;19;19939;-65
2021/12/31 05:25:00;;;;;;;;;;;;;;;;;;7399344;19;19922;-52
2021/12/31 05:27:28;;;;;;;;;;;;;;;;;;7396641;19;19911;-53
2021/12/31 05:29:55;;;;;;;;;;;;;;;;;;7397920;19;19934;-64
2021/12/31 05:32:22;;;;;;;;;;;;;;;;;;7398671;19;19935;-62
2021/12/31 05:34:49;;;;;;;;;;;;;;;;;;7398319;19;19919;-67
2021/12/31 05:37:17;;;;;;;;;;;;;;;;;;7398457;19;19940;-61
2021/12/31 05:39:44;;;;;;;;;;;;;;;;;;7398085;19;19911;-57
2021/12/31 05:42:12;;;;;;;;;;;;;;;;;;7398510;19;19926;-49
2021/12/31 05:44:39;;;;;;;;;;;;;;;;;;7398121;19;20324;-67
2021/12/31 05:47:07;;;;;;;;;;;;;;;;;;7396526;19;19917;-53
2021/12/31 05:49:34;;;;;;;;;;;;;;;;;;7398584;19;19921;-54
2021/12/31 05:52:01;;;;;;;;;;;;;;;;;;7397896;19;19918;-53
2021/12/31 05:54:29;;;;;;;;;;;;;;;;;;7398050;19;20356;-68
2021/12/31 05:56:56;;;;;;;;;;;;;;;;;;7397357;19;19918;-52
2021/12/31 05:59:24;;;;;;;;;;;;;;;;;;7397558;19;19919;-67
2021/12/31 06:01:51;;;;;;;;;;;;;;;;;;7397948;19;19925;-60
2021/12/31 06:04:19;;;;;;;;;;;;;;;;;;7397973;19;19911;-54
2021/12/31 06:06:46;;;;;;;;;;;;;;;;;;7396323;19;19955;-55
2021/12/31 06:09:13;;;;;;;;;;;;;;;;;;7400312;19;19978;-62
2021/12/31 06:11:41;;;;;;;;;;;;;;;;;;7397069;19;20364;-64
2021/12/31 06:14:09;;;;;;;;;;;;;;;;;;7397490;19;19996;-51
2021/12/31 06:16:41;;;;;;;;;;;;;;;;;;7397192;19;19919;-66
2021/12/31 06:19:12;;;;;;;;;;;;;;;;;;7396844;19;19910;-64
2021/12/31 06:21:40;;;;;;;;;;;;;;;;;;7397045;19;20251;-62
2021/12/31 06:24:08;;;;;;;;;;;;;;;;;;7396259;19;19915;-59
2021/12/31 06:26:35;;;;;;;;;;;;;;;;;;7396166;19;19910;-52
2021/12/31 06:29:04;;;;;;;;;;;;;;;;;;7397030;19;19922;-67
2021/12/31 06:31:31;;;;;;;;;;;;;;;;;;7396566;19;19943;-61
2021/12/31 06:33:58;;;;;;;;;;;;;;;;;;7394556;19;19921;-59
2021/12/31 06:36:25;;;;;;;;;;;;;;;;;;7396444;19;19915;-67
2021/12/31 06:38:53;;;;;;;;;;;;;;;;;;7396683;19;19907;-53
2021/12/31 06:41:20;;;;;;;;;;;;;;;;;;7397093;19;19930;-53
2021/12/31 06:43:47;;;;;;;;;;;;;;;;;;7396273;19;19918;-51
2021/12/31 06:46:15;;;;;;;;;;;;;;;;;;7395774;19;19918;-61
2021/12/31 06:48:42;;;;;;;;;;;;;;;;;;7396077;19;19911;-60
2021/12/31 06:51:10;;;;;;;;;;;;;;;;;;7397555;19;19914;-51
2021/12/31 06:53:37;;;;;;;;;;;;;;;;;;7395812;19;19919;-49
2021/12/31 06:56:05;;;;;;;;;;;;;;;;;;7395727;19;19940;-57
2021/12/31 06:58:32;;;;;;;;;;;;;;;;;;7395580;19;19915;-64
2021/12/31 07:00:59;;;;;;;;;;;;;;;;;;7395513;19;19949;-60
2021/12/31 07:03:26;;;;;;;;;;;;;;;;;;7395407;19;19923;-56
2021/12/31 07:05:54;;;;;;;;;;;;;;;;;;7395309;19;19914;-52
2021/12/31 07:08:24;;;;;;;;;;;;;;;;;;7391662;19;19942;-50
2021/12/31 07:10:51;;;;;;;;;;;;;;;;;;7389431;19;19926;-54
2021/12/31 07:13:18;;;;;;;;;;;;;;;;;;7397307;19;20006;-52
2021/12/31 07:15:50;;;;;;;;;;;;;;;;;;7391559;19;19949;-52
2021/12/31 07:18:18;;;;;;;;;;;;;;;;;;7397603;19;19915;-58
2021/12/31 07:20:45;;;;;;;;;;;;;;;;;;7392264;19;19939;-60
2021/12/31 07:23:14;;;;;;;;;;;;;;;;;;7394749;19;19918;-49
2021/12/31 07:25:41;;;;;;;;;;;;;;;;;;7394522;19;19933;-59
2021/12/31 07:28:09;;;;;;;;;;;;;;;;;;7392348;19;19914;-68
2021/12/31 07:30:37;;;;;;;;;;;;;;;;;;7394494;19;19923;-58
2021/12/31 07:33:05;;;;;;;;;;;;;;;;;;7394245;19;19919;-56
2021/12/31 07:35:32;;;;;;;;;;;;;;;;;;7397786;19;19926;-57
2021/12/31 07:38:00;;;;;;;;;;;;;;;;;;7394825;19;19918;-65
2021/12/31 07:40:41;;;;;;;;;;;;;;;;;;7394942;19;19922;-62
2021/12/31 07:43:09;;;;;;;;;;;;;;;;;;7394853;19;19939;-51
2021/12/31 07:45:37;;;;;;;;;;;;;;;;;;7394268;19;19926;-51
2021/12/31 07:48:04;;;;;;;;;;;;;;;;;;7392451;19;19990;-51
2021/12/31 07:50:32;;;;;;;;;;;;;;;;;;7396671;19;19915;-65
2021/12/31 07:52:59;;;;;;;;;;;;;;;;;;7394366;19;20354;-55
2021/12/31 07:55:27;;;;;;;;;;;;;;;;;;7394221;19;19918;-54
2021/12/31 07:57:54;;;;;;;;;;;;;;;;;;7392543;19;19915;-55
2021/12/31 08:00:21;;;;;;;;;;;;;;;;;;7394288;19;19939;-61
2021/12/31 08:02:49;;;;;;;;;;;;;;;;;;7394472;19;19914;-61
2021/12/31 08:05:16;;;;;;;;;;;;;;;;;;7394666;19;19943;-57
2021/12/31 08:07:43;;;;;;;;;;;;;;;;;;7392450;19;19922;-55
2021/12/31 08:10:11;;;;;;;;;;;;;;;;;;7393711;19;19937;-66
2021/12/31 08:12:50;;;;;;;;;;;;;;;;;;7393863;19;19978;-67
2021/12/31 08:15:17;;;;;;;;;;;;;;;;;;7393993;19;19915;-64
2021/12/31 08:17:44;;;;;;;;;;;;;;;;;;7393096;19;20332;-54
2021/12/31 08:20:11;;;;;;;;;;;;;;;;;;7392848;19;20363;-54
2021/12/31 08:22:38;;;;;;;;;;;;;;;;;;7393307;19;19922;-54
2021/12/31 08:25:06;;;;;;;;;;;;;;;;;;7391607;19;19921;-66
2021/12/31 08:27:37;;;;;;;;;;;;;;;;;;7392365;19;19907;-55
2021/12/31 08:30:04;;;;;;;;;;;;;;;;;;7392936;19;19918;-55
2021/12/31 08:32:33;;;;;;;;;;;;;;;;;;7393364;19;19935;-55
2021/12/31 08:35:00;;;;;;;;;;;;;;;;;;7392761;19;19951;-67
2021/12/31 08:37:29;;;;;;;;;;;;;;;;;;7392443;19;19919;-66
2021/12/31 08:39:57;;;;;;;;;;;;;;;;;;7390791;19;20249;-52
2021/12/31 08:42:25;;;;;;;;;;;;;;;;;;7391882;19;19931;-54
2021/12/31 08:44:52;;;;;;;;;;;;;;;;;;7392654;19;19915;-52
2021/12/31 08:47:21;;;;;;;;;;;;;;;;;;7391821;19;19921;-52
2021/12/31 08:49:48;;;;;;;;;;;;;;;;;;7393191;19;19944;-58
2021/12/31 08:52:16;;;;;;;;;;;;;;;;;;7391964;19;19921;-52
2021/12/31 08:54:43;;;;;;;;;;;;;;;;;;7392621;19;19926;-62
2021/12/31 08:57:10;;;;;;;;;;;;;;;;;;7391156;19;19915;-50
2021/12/31 08:59:37;;;;;;;;;;;;;;;;;;7392221;19;19962;-52
2021/12/31 09:02:04;;;;;;;;;;;;;;;;;;7392286;19;19947;-67
2021/12/31 09:04:32;;;;;;;;;;;;;;;;;;7391879;19;19917;-60
2021/12/31 09:06:59;;;;;;;;;;;;;;;;;;7391587;19;19958;-52
2021/12/31 09:09:26;;;;;;;;;;;;;;;;;;7391829;19;19925;-66
2021/12/31 09:11:54;;;;;;;;;;;;;;;;;;7391880;19;19914;-51
2021/12/31 09:14:22;;;;;;;;;;;;;;;;;;7392091;19;19947;-54
2021/12/31 09:16:52;;;;;;;;;;;;;;;;;;7392396;19;19959;-66
2021/12/31 09:19:19;;;;;;;;;;;;;;;;;;7391771;19;19939;-54
2021/12/31 09:21:46;;;;;;;;;;;;;;;;;;7391452;19;19942;-54
2021/12/31 09:24:14;;;;;;;;;;;;;;;;;;7391240;19;20401;-54
2021/12/31 09:26:41;;;;;;;;;;;;;;;;;;7391714;19;19918;-61
2021/12/31 09:29:08;;;;;;;;;;;;;;;;;;7391101;19;19923;-60
2021/12/31 09:31:35;;;;;;;;;;;;;;;;;;7391645;19;19966;-55
2021/12/31 09:34:03;;;;;;;;;;;;;;;;;;7391236;19;19915;-54
2021/12/31 09:36:30;;;;;;;;;;;;;;;;;;7389306;19;19938;-57
2021/12/31 09:38:57;;;;;;;;;;;;;;;;;;7391033;19;19923;-56
2021/12/31 09:41:24;;;;;;;;;;;;;;;;;;7391258;19;19918;-55
2021/12/31 09:43:52;;;;;;;;;;;;;;;;;;7391574;19;19940;-50
2021/12/31 09:46:20;;;;;;;;;;;;;;;;;;7391193;19;19919;-66
2021/12/31 09:48:47;;;;;;;;;;;;;;;;;;7389237;19;19918;-65
2021/12/31 09:51:14;;;;;;;;;;;;;;;;;;7394078;19;19946;-65
2021/12/31 09:53:41;;;;;;;;;;;;;;;;;;7388398;19;20260;-57
2021/12/31 09:56:09;;;;;;;;;;;;;;;;;;7389670;19;19918;-56
2021/12/31 09:58:37;;;;;;;;;;;;;;;;;;7389888;19;19918;-58
2021/12/31 10:01:04;;;;;;;;;;;;;;;;;;7390124;19;19950;-64
2021/12/31 10:03:33;;;;;;;;;;;;;;;;;;7390171;19;20243;-56
2021/12/31 10:06:08;;;;;;;;;;;;;;;;;;7390429;19;19915;-65
2021/12/31 10:08:40;;;;;;;;;;;;;;;;;;7389161;19;19918;-54
2021/12/31 10:11:09;;;;;;;;;;;;;;;;;;7395733;19;19918;-53
2021/12/31 10:13:37;;;;;;;;;;;;;;;;;;7397376;19;19915;-54
2021/12/31 10:16:05;;;;;;;;;;;;;;;;;;7397668;19;19943;-59
2021/12/31 10:18:34;;;;;;;;;;;;;;;;;;7397330;19;20394;-66
2021/12/31 10:21:03;;;;;;;;;;;;;;;;;;7397104;19;19982;-51
2021/12/31 10:23:30;;;;;;;;;;;;;;;;;;7399512;19;20345;-54
2021/12/31 10:26:07;;;;;;;;;;;;;;;;;;7396890;19;19915;-56
2021/12/31 10:28:35;;;;;;;;;;;;;;;;;;7395563;19;19943;-58
2021/12/31 10:31:12;;;;;;;;;;;;;;;;;;7397218;19;19914;-54
2021/12/31 10:33:44;;;;;;;;;;;;;;;;;;7396227;19;20343;-53
2021/12/31 10:36:31;;;;;;;;;;;;;;;;;;7392786;19;19919;-57
2021/12/31 10:39:00;;;;;;;;;;;;;;;;;;7396687;19;19919;-64
2021/12/31 10:41:27;;;;;;;;;;;;;;;;;;7396653;19;19943;-53
2021/12/31 10:43:57;;;;;;;;;;;;;;;;;;7396457;19;19926;-56
2021/12/31 10:46:25;;;;;;;;;;;;;;;;;;7396730;19;19933;-65
2021/12/31 10:48:55;;;;;;;;;;;;;;;;;;7394104;19;19915;-66
2021/12/31 10:51:52;;;;;;;;;;;;;;;;;;7400438;19;19911;-53
2021/12/31 10:54:44;;;;;;;;;;;;;;;;;;7394567;19;19925;-60
2021/12/31 10:57:12;;;;;;;;;;;;;;;;;;7394184;19;19911;-58
2021/12/31 10:59:39;;;;;;;;;;;;;;;;;;7395510;19;19950;-61
2021/12/31 11:02:06;;;;;;;;;;;;;;;;;;7395967;19;19943;-54
2021/12/31 11:04:34;;;;;;;;;;;;;;;;;;7395350;19;19919;-65
2021/12/31 11:07:02;;;;;;;;;;;;;;;;;;7395756;19;19923;-61
2021/12/31 11:09:30;;;;;;;;;;;;;;;;;;7393394;19;19928;-58
2021/12/31 11:11:58;;;;;;;;;;;;;;;;;;7387571;19;19929;-48
2021/12/31 11:14:25;;;;;;;;;;;;;;;;;;7398285;19;19943;-54
2021/12/31 11:16:52;;;;;;;;;;;;;;;;;;7395889;19;19911;-58
2021/12/31 11:19:20;;;;;;;;;;;;;;;;;;7390400;19;19951;-58
2021/12/31 11:21:49;;;;;;;;;;;;;;;;;;7389288;19;19982;-57
2021/12/31 11:24:30;;;;;;;;;;;;;;;;;;7394286;19;20332;-54
2021/12/31 11:26:58;;;;;;;;;;;;;;;;;;7395015;19;19915;-57
2021/12/31 11:29:37;;;;;;;;;;;;;;;;;;7392892;19;19914;-60
2021/12/31 11:32:05;;;;;;;;;;;;;;;;;;7394578;19;20028;-63
2021/12/31 11:34:32;;;;;;;;;;;;;;;;;;7393872;19;19915;-53
2021/12/31 11:37:01;;;;;;;;;;;;;;;;;;7394602;19;19919;-59
2021/12/31 11:39:31;;;;;;;;;;;;;;;;;;7395251;19;19911;-56
2021/12/31 11:42:02;;;;;;;;;;;;;;;;;;7394488;19;20332;-65
2021/12/31 11:44:30;;;;;;;;;;;;;;;;;;7394570;19;19946;-58
2021/12/31 11:47:12;;;;;;;;;;;;;;;;;;7394494;19;19910;-59
2021/12/31 11:49:39;;;;;;;;;;;;;;;;;;7395458;19;19940;-63
2021/12/31 11:52:08;;;;;;;;;;;;;;;;;;7394371;19;19918;-54
2021/12/31 11:54:37;;;;;;;;;;;;;;;;;;7393434;19;19962;-61
2021/12/31 11:57:06;;;;;;;;;;;;;;;;;;7393368;19;19911;-54
2021/12/31 11:59:34;;;;;;;;;;;;;;;;;;7393647;19;19915;-62
2021/12/31 12:02:04;;;;;;;;;;;;;;;;;;7393934;19;19955;-58
2021/12/31 12:04:33;;;;;;;;;;;;;;;;;;7394133;19;19995;-56
2021/12/31 12:07:00;;;;;;;;;;;;;;;;;;7394309;19;19941;-62
2021/12/31 12:09:36;;;;;;;;;;;;;;;;;;7392383;19;19915;-63
2021/12/31 12:12:13;;;;;;;;;;;;;;;;;;7393742;19;19932;-65
2021/12/31 12:14:41;;;;;;;;;;;;;;;;;;7393057;19;19986;-60
2021/12/31 12:17:09;;;;;;;;;;;;;;;;;;7392098;19;19934;-65
2021/12/31 12:19:49;;;;;;;;;;;;;;;;;;7393606;19;19911;-64
2021/12/31 12:22:25;;;;;;;;;;;;;;;;;;7393124;19;19935;-61
2021/12/31 12:24:54;;;;;;;;;;;;;;;;;;7393658;19;19974;-57
2021/12/31 12:27:22;;;;;;;;;;;;;;;;;;7393301;19;19915;-59
2021/12/31 12:29:50;;;;;;;;;;;;;;;;;;7392886;19;19914;-59
2021/12/31 12:32:29;;;;;;;;;;;;;;;;;;7391309;19;19918;-64
2021/12/31 12:34:57;;;;;;;;;;;;;;;;;;7392567;19;19919;-59
2021/12/31 12:37:27;;;;;;;;;;;;;;;;;;7393307;19;19915;-59
2021/12/31 12:40:02;;;;;;;;;;;;;;;;;;7393080;19;19914;-57
2021/12/31 12:42:30;;;;;;;;;;;;;;;;;;7392588;19;19915;-66
2021/12/31 12:45:04;;;;;;;;;;;;;;;;;;7393233;19;19929;-64
2021/12/31 12:47:32;;;;;;;;;;;;;;;;;;7392470;19;19923;-58
2021/12/31 12:50:00;;;;;;;;;;;;;;;;;;7393680;19;19914;-57
2021/12/31 12:52:27;;;;;;;;;;;;;;;;;;7392305;19;20336;-64
2021/12/31 12:55:14;;;;;;;;;;;;;;;;;;7393253;19;19915;-66
2021/12/31 12:57:41;;;;;;;;;;;;;;;;;;7392305;19;19915;-67
2021/12/31 13:00:09;;;;;;;;;;;;;;;;;;7391893;19;19982;-66
2021/12/31 13:02:38;;;;;;;;;;;;;;;;;;7392185;19;19935;-64
2021/12/31 13:05:05;;;;;;;;;;;;;;;;;;7391901;19;20262;-63
2021/12/31 13:07:33;;;;;;;;;;;;;;;;;;7392076;19;19915;-59
2021/12/31 13:10:04;;;;;;;;;;;;;;;;;;7392274;19;19933;-59
2021/12/31 13:12:32;;;;;;;;;;;;;;;;;;7391684;19;19914;-61
2021/12/31 13:15:06;;;;;;;;;;;;;;;;;;7392255;19;19918;-64
2021/12/31 13:17:36;;;;;;;;;;;;;;;;;;7391734;19;19911;-61
2021/12/31 13:20:07;;;;;;;;;;;;;;;;;;7391477;19;19951;-66
2021/12/31 13:22:35;;;;;;;;;;;;;;;;;;7391388;19;19974;-62
2021/12/31 13:25:03;;;;;;;;;;;;;;;;;;7390815;19;20554;-59
2021/12/31 13:27:31;;;;;;;;;;;;;;;;;;7391502;19;19919;-66
2021/12/31 13:30:06;;;;;;;;;;;;;;;;;;7388585;19;19927;-62
2021/12/31 13:32:40;;;;;;;;;;;;;;;;;;7390840;19;19911;-58
2021/12/31 13:35:09;;;;;;;;;;;;;;;;;;7390291;19;19931;-65
2021/12/31 13:37:41;;;;;;;;;;;;;;;;;;7391313;19;19923;-60
2021/12/31 13:40:19;;;;;;;;;;;;;;;;;;7391195;19;19919;-66
2021/12/31 13:42:58;;;;;;;;;;;;;;;;;;7393538;19;19918;-60
2021/12/31 13:45:26;;;;;;;;;;;;;;;;;;7398417;19;19915;-58
2021/12/31 13:47:54;;;;;;;;;;;;;;;;;;7397781;19;19942;-59
2021/12/31 13:50:22;;;;;;;;;;;;;;;;;;7400672;19;19935;-66
2021/12/31 13:52:51;;;;;;;;;;;;;;;;;;7398403;19;19911;-59
2021/12/31 13:55:23;;;;;;;;;;;;;;;;;;7397592;19;20363;-59
2021/12/31 13:57:51;;;;;;;;;;;;;;;;;;7398344;19;19919;-66
2021/12/31 14:00:34;;;;;;;;;;;;;;;;;;7397647;19;19936;-65
2021/12/31 14:03:17;;;;;;;;;;;;;;;;;;7398367;19;19922;-60
2021/12/31 14:05:49;;;;;;;;;;;;;;;;;;7397722;19;19921;-59
2021/12/31 14:11:03;;;;;;;;;;;;;;;;;;7397638;19;19947;-63
2021/12/31 14:13:30;;;;;;;;;;;;;;;;;;7397621;19;19910;-65
2021/12/31 14:15:57;;;;;;;;;;;;;;;;;;7395841;19;19922;-65
2021/12/31 14:18:24;;;;;;;;;;;;;;;;;;7397395;19;19922;-59
2021/12/31 14:20:52;;;;;;;;;;;;;;;;;;7397518;19;19918;-60
2021/12/31 14:23:19;;;;;;;;;;;;;;;;;;7397030;19;19911;-59
2021/12/31 14:25:46;;;;;;;;;;;;;;;;;;7397429;19;19915;-66
2021/12/31 14:28:14;;;;;;;;;;;;;;;;;;7396490;19;19918;-64
2021/12/31 14:30:45;;;;;;;;;;;;;;;;;;7397166;19;20261;-66
2021/12/31 14:33:13;;;;;;;;;;;;;;;;;;7396754;19;20357;-59
2021/12/31 14:36:00;;;;;;;;;;;;;;;;;;7394373;19;19926;-67
2021/12/31 14:38:30;;;;;;;;;;;;;;;;;;7396308;19;19914;-59
2021/12/31 14:41:03;;;;;;;;;;;;;;;;;;7396226;19;19923;-67
2021/12/31 14:43:30;;;;;;;;;;;;;;;;;;7396401;19;19918;-61
2021/12/31 14:45:57;;;;;;;;;;;;;;;;;;7396328;19;19945;-65
2021/12/31 14:48:25;;;;;;;;;;;;;;;;;;7395215;19;19940;-58
2021/12/31 14:50:53;;;;;;;;;;;;;;;;;;7399357;19;19914;-60
2021/12/31 14:53:20;;;;;;;;;;;;;;;;;;7396770;19;19942;-67
2021/12/31 14:55:47;;;;;;;;;;;;;;;;;;7394767;19;19944;-69
2021/12/31 14:58:14;;;;;;;;;;;;;;;;;;7395890;19;19919;-64
2021/12/31 15:00:41;;;;;;;;;;;;;;;;;;7396234;19;19917;-56
2021/12/31 15:03:09;;;;;;;;;;;;;;;;;;7395503;19;19932;-57
2021/12/31 15:05:37;;;;;;;;;;;;;;;;;;7395656;19;19915;-57
2021/12/31 15:08:04;;;;;;;;;;;;;;;;;;7395186;19;19914;-67
2021/12/31 15:10:31;;;;;;;;;;;;;;;;;;7395882;19;19919;-56
2021/12/31 15:12:59;;;;;;;;;;;;;;;;;;7395811;19;19922;-57
2021/12/31 15:15:26;;;;;;;;;;;;;;;;;;7395436;19;19914;-57
2021/12/31 15:17:53;;;;;;;;;;;;;;;;;;7395614;19;19925;-55
2021/12/31 15:20:20;;;;;;;;;;;;;;;;;;7395443;19;19918;-65
2021/12/31 15:22:51;;;;;;;;;;;;;;;;;;7396168;19;20355;-52
2021/12/31 15:25:20;;;;;;;;;;;;;;;;;;7394899;19;19925;-67
2021/12/31 15:27:47;;;;;;;;;;;;;;;;;;7395005;19;20333;-67
2021/12/31 15:30:14;;;;;;;;;;;;;;;;;;7392720;19;19922;-57
2021/12/31 15:32:42;;;;;;;;;;;;;;;;;;7394859;19;19942;-53
2021/12/31 15:35:09;;;;;;;;;;;;;;;;;;7392489;19;19925;-53
2021/12/31 15:37:39;;;;;;;;;;;;;;;;;;7395375;19;19910;-57
2021/12/31 15:40:06;;;;;;;;;;;;;;;;;;7394904;19;19995;-54
2021/12/31 15:42:38;;;;;;;;;;;;;;;;;;7394294;19;19922;-63
2021/12/31 15:45:06;;;;;;;;;;;;;;;;;;7395059;19;19931;-64
2021/12/31 15:47:33;;;;;;;;;;;;;;;;;;7394354;19;19922;-60
2021/12/31 15:50:00;;;;;;;;;;;;;;;;;;7394331;19;19914;-57
2021/12/31 15:52:28;;;;;;;;;;;;;;;;;;7394539;19;19919;-56
2021/12/31 15:54:56;;;;;;;;;;;;;;;;;;7394556;19;19923;-60
2021/12/31 15:57:23;;;;;;;;;;;;;;;;;;7394139;19;19918;-65
2021/12/31 15:59:50;;;;;;;;;;;;;;;;;;7394370;19;19930;-65
2021/12/31 16:02:18;;;;;;;;;;;;;;;;;;7393769;19;19914;-65
2021/12/31 16:04:46;;;;;;;;;;;;;;;;;;7393958;19;20450;-58
2021/12/31 16:07:13;;;;;;;;;;;;;;;;;;7391208;19;19918;-65
2021/12/31 16:09:41;;;;;;;;;;;;;;;;;;7392176;19;20342;-59
2021/12/31 16:12:09;;;;;;;;;;;;;;;;;;7392725;19;19915;-66
2021/12/31 16:14:36;;;;;;;;;;;;;;;;;;7393933;19;19926;-57
2021/12/31 16:17:03;;;;;;;;;;;;;;;;;;7393273;19;19942;-65
2021/12/31 16:19:32;;;;;;;;;;;;;;;;;;7393781;19;19921;-56
2021/12/31 16:22:01;;;;;;;;;;;;;;;;;;7392951;19;19931;-57
2021/12/31 16:24:32;;;;;;;;;;;;;;;;;;7393476;19;19919;-65
2021/12/31 16:26:59;;;;;;;;;;;;;;;;;;7392913;19;20263;-59
2021/12/31 16:29:45;;;;;;;;;;;;;;;;;;7392106;19;19978;-60
2021/12/31 16:32:12;;;;;;;;;;;;;;;;;;7393030;19;19910;-60
2021/12/31 16:34:41;;;;;;;;;;;;;;;;;;7392512;19;19922;-61
2021/12/31 16:37:09;;;;;;;;;;;;;;;;;;7392892;19;20379;-63
2021/12/31 16:39:42;;;;;;;;;;;;;;;;;;7392811;19;19910;-59
2021/12/31 16:42:10;;;;;;;;;;;;;;;;;;7392539;19;19925;-55
2021/12/31 16:44:37;;;;;;;;;;;;;;;;;;7392646;19;19918;-57
2021/12/31 16:47:06;;;;;;;;;;;;;;;;;;7391761;19;19927;-56
2021/12/31 16:49:33;;;;;;;;;;;;;;;;;;7391742;19;20340;-61
2021/12/31 16:52:00;;;;;;;;;;;;;;;;;;7390898;19;19935;-66
2021/12/31 16:54:28;;;;;;;;;;;;;;;;;;7392316;19;19914;-62
2021/12/31 16:56:55;;;;;;;;;;;;;;;;;;7392641;19;19921;-56
2021/12/31 16:59:22;;;;;;;;;;;;;;;;;;7392963;19;19919;-66
2021/12/31 17:01:50;;;;;;;;;;;;;;;;;;7391609;19;20364;-65